Time;durP1;ratioP1;P1;durP2;ratioP2;P2;SDS_P1;SDS_P2;PMS_P1;PMS_P2;Temp;Humidity;BMP_temperature;BMP_pressure;BME280_temperature;BME280_humidity;BME280_pressure;Samples;Min_cycle;Max_cycle;Signal;HPM_P1;HPM_P2
2021/10/04 00:02:01;;;;;;;3.97;2.90;;;;;17.00;98161.00;;;;5095975;28;20184;-58
2021/10/04 00:04:28;;;;;;;4.53;3.00;;;;;17.00;98166.00;;;;5095893;28;20235;-58
2021/10/04 00:06:56;;;;;;;3.30;2.77;;;;;17.00;98180.00;;;;5096485;28;20607;-58
2021/10/04 00:09:24;;;;;;;3.60;3.07;;;;;17.00;98184.00;;;;5096087;28;20198;-58
2021/10/04 00:11:51;;;;;;;4.47;3.03;;;;;17.00;98190.00;;;;5095651;28;20745;-58
2021/10/04 00:14:20;;;;;;;3.97;2.80;;;;;17.00;98193.00;;;;5095654;28;20207;-58
2021/10/04 00:16:49;;;;;;;4.20;3.00;;;;;17.00;98196.00;;;;5095654;28;20186;-58
2021/10/04 00:19:16;;;;;;;3.57;2.77;;;;;17.00;98200.00;;;;5095634;28;20186;-58
2021/10/04 00:21:43;;;;;;;3.13;2.70;;;;;17.00;98204.00;;;;5095619;28;20237;-58
2021/10/04 00:24:09;;;;;;;4.13;3.03;;;;;17.00;98202.00;;;;5095765;28;20218;-57
2021/10/04 00:26:36;;;;;;;4.63;2.90;;;;;17.00;98200.00;;;;5095439;28;20612;-58
2021/10/04 00:29:03;;;;;;;3.27;2.70;;;;;17.00;98195.00;;;;5095454;28;20188;-58
2021/10/04 00:31:30;;;;;;;3.03;2.53;;;;;17.00;98198.00;;;;5095369;28;20247;-58
2021/10/04 00:33:56;;;;;;;3.07;2.60;;;;;17.00;98195.00;;;;5094773;28;20212;-58
2021/10/04 00:36:23;;;;;;;3.27;2.73;;;;;17.00;98185.00;;;;5095309;28;20188;-58
2021/10/04 00:38:50;;;;;;;3.37;2.70;;;;;17.00;98178.00;;;;5095241;28;20277;-58
2021/10/04 00:41:16;;;;;;;3.97;2.80;;;;;17.00;98179.00;;;;5095181;28;20603;-58
2021/10/04 00:43:43;;;;;;;3.30;2.60;;;;;16.90;98175.00;;;;5095103;28;20301;-58
2021/10/04 00:46:10;;;;;;;3.20;2.53;;;;;17.00;98174.00;;;;5095094;28;20655;-58
2021/10/04 00:48:37;;;;;;;3.57;2.50;;;;;17.00;98175.00;;;;5095057;28;20186;-58
2021/10/04 00:51:03;;;;;;;4.40;3.20;;;;;17.00;98162.00;;;;5095510;28;20615;-58
2021/10/04 00:53:30;;;;;;;3.33;2.70;;;;;16.90;98160.00;;;;5094727;28;20591;-57
2021/10/04 00:55:56;;;;;;;5.10;2.97;;;;;16.90;98153.00;;;;5095160;28;20277;-58
2021/10/04 00:58:23;;;;;;;3.53;2.60;;;;;17.00;98155.00;;;;5094966;28;20192;-58
2021/10/04 01:00:49;;;;;;;3.30;2.57;;;;;16.90;98154.00;;;;5095324;28;20247;-58
2021/10/04 01:03:17;;;;;;;3.40;2.50;;;;;16.90;98147.00;;;;5094955;28;20182;-58
2021/10/04 01:05:43;;;;;;;3.53;2.90;;;;;16.90;98144.00;;;;5095246;28;20184;-58
2021/10/04 01:08:10;;;;;;;3.13;2.63;;;;;16.90;98158.00;;;;5094653;28;20242;-58
2021/10/04 01:10:36;;;;;;;3.27;2.17;;;;;16.90;98164.00;;;;5094618;28;20665;-58
2021/10/04 01:13:04;;;;;;;2.73;2.40;;;;;17.00;98174.00;;;;5094408;28;20201;-58
2021/10/04 01:15:30;;;;;;;3.10;2.43;;;;;16.90;98185.00;;;;5094840;28;20183;-58
2021/10/04 01:17:57;;;;;;;3.10;2.47;;;;;16.90;98178.00;;;;5094783;28;20193;-58
2021/10/04 01:20:26;;;;;;;3.07;2.57;;;;;16.90;98173.00;;;;5094437;28;20212;-58
2021/10/04 01:22:54;;;;;;;3.50;2.20;;;;;17.00;98191.00;;;;5094185;28;20206;-58
2021/10/04 01:25:21;;;;;;;2.60;2.40;;;;;16.90;98177.00;;;;5094260;28;20629;-58
2021/10/04 01:27:49;;;;;;;3.40;2.67;;;;;16.90;98161.00;;;;5094629;28;20528;-58
2021/10/04 01:30:20;;;;;;;3.17;2.60;;;;;16.90;98170.00;;;;5094528;28;20623;-58
2021/10/04 01:32:47;;;;;;;2.47;2.23;;;;;16.90;98173.00;;;;5094464;28;20198;-58
2021/10/04 01:35:14;;;;;;;2.70;2.43;;;;;16.90;98167.00;;;;5094093;28;20271;-58
2021/10/04 01:37:40;;;;;;;2.93;2.30;;;;;16.90;98169.00;;;;5094099;28;20722;-58
2021/10/04 01:40:09;;;;;;;4.60;2.60;;;;;16.90;98170.00;;;;5094393;28;20243;-58
2021/10/04 01:42:36;;;;;;;2.60;2.37;;;;;16.90;98172.00;;;;5094000;28;20183;-58
2021/10/04 01:45:05;;;;;;;3.00;2.40;;;;;16.90;98173.00;;;;5093372;28;20256;-58
2021/10/04 01:47:32;;;;;;;2.90;2.40;;;;;16.90;98168.00;;;;5094203;28;20248;-58
2021/10/04 01:49:58;;;;;;;2.63;2.20;;;;;16.90;98174.00;;;;5093955;28;20191;-58
2021/10/04 01:52:25;;;;;;;3.00;2.40;;;;;16.90;98173.00;;;;5094048;28;20211;-57
2021/10/04 01:54:53;;;;;;;2.50;2.20;;;;;16.90;98179.00;;;;5093756;28;20232;-58
2021/10/04 01:57:19;;;;;;;2.80;2.20;;;;;16.90;98188.00;;;;5093996;28;20662;-58
2021/10/04 01:59:46;;;;;;;3.07;2.50;;;;;16.90;98192.00;;;;5093756;28;20188;-58
2021/10/04 02:02:12;;;;;;;3.47;2.20;;;;;16.90;98183.00;;;;5093977;28;20252;-58
2021/10/04 02:04:39;;;;;;;2.13;1.93;;;;;16.90;98190.00;;;;5093620;28;20207;-58
2021/10/04 02:07:06;;;;;;;2.67;2.17;;;;;16.90;98202.00;;;;5093623;28;20194;-58
2021/10/04 02:09:32;;;;;;;2.80;2.17;;;;;16.90;98182.00;;;;5093578;28;20188;-58
2021/10/04 02:11:59;;;;;;;3.80;2.37;;;;;16.90;98182.00;;;;5093972;28;20241;-58
2021/10/04 02:14:25;;;;;;;2.53;2.00;;;;;16.90;98183.00;;;;5093409;28;20214;-58
2021/10/04 02:16:52;;;;;;;2.60;2.20;;;;;16.90;98195.00;;;;5093466;28;20271;-58
2021/10/04 02:19:18;;;;;;;2.37;2.10;;;;;16.90;98185.00;;;;5093711;28;20195;-58
2021/10/04 02:21:45;;;;;;;2.67;2.10;;;;;16.90;98186.00;;;;5093232;28;20598;-58
2021/10/04 02:24:12;;;;;;;2.87;2.17;;;;;16.90;98179.00;;;;5093374;28;20221;-58
2021/10/04 02:26:42;;;;;;;2.40;1.80;;;;;16.90;98169.00;;;;5093356;28;20189;-58
2021/10/04 02:29:08;;;;;;;3.20;2.30;;;;;16.90;98165.00;;;;5093653;28;20603;-58
2021/10/04 02:31:34;;;;;;;2.23;2.03;;;;;16.90;98165.00;;;;5093795;28;20240;-58
2021/10/04 02:34:01;;;;;;;2.00;1.80;;;;;16.90;98152.00;;;;5093126;28;20216;-58
2021/10/04 02:36:27;;;;;;;3.67;2.43;;;;;16.90;98159.00;;;;5093228;28;20241;-58
2021/10/04 02:38:54;;;;;;;1.90;1.80;;;;;16.90;98154.00;;;;5093198;28;20237;-58
2021/10/04 02:41:20;;;;;;;2.17;1.93;;;;;16.90;98158.00;;;;5093200;28;20197;-58
2021/10/04 02:43:48;;;;;;;2.33;2.00;;;;;16.90;98157.00;;;;5093116;28;20688;-58
2021/10/04 02:46:14;;;;;;;2.80;2.37;;;;;16.90;98160.00;;;;5093400;28;20605;-58
2021/10/04 02:48:41;;;;;;;1.97;1.83;;;;;16.90;98162.00;;;;5093405;28;20653;-58
2021/10/04 02:51:08;;;;;;;2.37;2.00;;;;;16.90;98165.00;;;;5093119;28;20208;-58
2021/10/04 02:53:35;;;;;;;2.30;2.00;;;;;16.90;98164.00;;;;5092955;28;20223;-58
2021/10/04 02:56:03;;;;;;;2.53;2.20;;;;;16.90;98167.00;;;;5094414;28;20200;-58
2021/10/04 02:58:30;;;;;;;2.43;1.97;;;;;16.80;98169.00;;;;5097194;28;20184;-58
2021/10/04 03:00:57;;;;;;;2.00;1.80;;;;;16.80;98181.00;;;;5097400;28;20196;-58
2021/10/04 03:03:24;;;;;;;2.23;2.03;;;;;16.80;98193.00;;;;5097028;28;20210;-58
2021/10/04 03:05:51;;;;;;;2.10;1.90;;;;;16.80;98191.00;;;;5097055;28;20188;-58
2021/10/04 03:08:17;;;;;;;2.37;2.00;;;;;16.80;98189.00;;;;5097018;28;20186;-58
2021/10/04 03:10:44;;;;;;;2.10;1.80;;;;;16.80;98198.00;;;;5096959;28;20600;-58
2021/10/04 03:13:10;;;;;;;2.20;2.00;;;;;16.80;98206.00;;;;5096798;28;20246;-58
2021/10/04 03:15:37;;;;;;;2.13;1.90;;;;;16.80;98212.00;;;;5096884;28;20218;-58
2021/10/04 03:18:04;;;;;;;2.27;1.90;;;;;16.80;98214.00;;;;5097169;28;20181;-58
2021/10/04 03:20:31;;;;;;;2.00;1.80;;;;;16.80;98215.00;;;;5096753;28;20177;-58
2021/10/04 03:22:57;;;;;;;1.77;1.67;;;;;16.80;98212.00;;;;5096632;28;20616;-58
2021/10/04 03:25:25;;;;;;;2.57;2.20;;;;;16.80;98217.00;;;;5097208;28;20535;-58
2021/10/04 03:27:51;;;;;;;2.40;2.00;;;;;16.80;98221.00;;;;5096641;28;20225;-58
2021/10/04 03:30:18;;;;;;;2.27;1.83;;;;;16.80;98223.00;;;;5096611;28;20184;-58
2021/10/04 03:32:46;;;;;;;2.20;2.00;;;;;16.80;98219.00;;;;5096490;28;20212;-58
2021/10/04 03:35:13;;;;;;;1.80;1.70;;;;;16.80;98215.00;;;;5096448;28;20214;-58
2021/10/04 03:37:39;;;;;;;2.20;2.00;;;;;16.80;98210.00;;;;5096454;28;20230;-58
2021/10/04 03:40:08;;;;;;;2.33;2.13;;;;;16.80;98206.00;;;;5096389;28;20534;-58
2021/10/04 03:42:34;;;;;;;1.70;1.60;;;;;16.80;98208.00;;;;5096346;28;20197;-58
2021/10/04 03:45:01;;;;;;;2.40;1.77;;;;;16.80;98216.00;;;;5096536;28;20208;-58
2021/10/04 03:47:28;;;;;;;2.00;1.80;;;;;16.80;98223.00;;;;5096492;28;20698;-58
2021/10/04 03:49:54;;;;;;;1.93;1.70;;;;;16.80;98224.00;;;;5096487;28;20186;-58
2021/10/04 03:52:21;;;;;;;2.43;1.93;;;;;16.80;98219.00;;;;5096172;28;20226;-58
2021/10/04 03:54:47;;;;;;;2.10;1.90;;;;;16.80;98218.00;;;;5096222;28;20250;-58
2021/10/04 03:57:14;;;;;;;2.03;1.70;;;;;16.80;98221.00;;;;5096047;28;20283;-58
2021/10/04 03:59:40;;;;;;;2.27;1.80;;;;;16.80;98222.00;;;;5096038;28;20186;-58
2021/10/04 04:02:07;;;;;;;2.13;1.70;;;;;16.80;98227.00;;;;5095976;28;20237;-58
2021/10/04 04:04:33;;;;;;;2.20;1.70;;;;;16.80;98227.00;;;;5096355;28;20204;-59
2021/10/04 04:07:00;;;;;;;2.20;1.67;;;;;16.80;98222.00;;;;5095666;28;20525;-58
2021/10/04 04:09:27;;;;;;;2.03;1.70;;;;;16.80;98221.00;;;;5095499;28;20248;-58
2021/10/04 04:11:53;;;;;;;1.77;1.63;;;;;16.80;98231.00;;;;5095794;28;20194;-58
2021/10/04 04:14:20;;;;;;;2.03;1.83;;;;;16.80;98222.00;;;;5095609;28;20218;-58
2021/10/04 04:16:46;;;;;;;1.80;1.70;;;;;16.80;98220.00;;;;5095640;28;20222;-58
2021/10/04 04:19:13;;;;;;;1.77;1.67;;;;;16.80;98228.00;;;;5095633;28;20247;-58
2021/10/04 04:21:42;;;;;;;1.90;1.70;;;;;16.80;98249.00;;;;5095380;28;20236;-58
2021/10/04 04:24:10;;;;;;;2.00;1.80;;;;;16.80;98256.00;;;;5094650;28;20641;-58
2021/10/04 04:26:37;;;;;;;1.80;1.53;;;;;16.80;98252.00;;;;5096046;28;20188;-58
2021/10/04 04:29:04;;;;;;;1.87;1.60;;;;;16.80;98263.00;;;;5095433;28;20245;-58
2021/10/04 04:31:30;;;;;;;1.67;1.57;;;;;16.80;98257.00;;;;5095408;28;20212;-58
2021/10/04 04:33:57;;;;;;;2.00;1.70;;;;;16.80;98266.00;;;;5095618;28;20226;-58
2021/10/04 04:36:23;;;;;;;1.77;1.50;;;;;16.80;98274.00;;;;5095314;28;20199;-58
2021/10/04 04:38:50;;;;;;;1.63;1.53;;;;;16.80;98278.00;;;;5095858;28;20191;-58
2021/10/04 04:41:18;;;;;;;1.80;1.50;;;;;16.80;98279.00;;;;5095231;28;20236;-58
2021/10/04 04:43:45;;;;;;;2.17;1.80;;;;;16.80;98289.00;;;;5095090;28;20213;-58
2021/10/04 04:46:12;;;;;;;1.63;1.40;;;;;16.80;98290.00;;;;5095200;28;20664;-58
2021/10/04 04:48:38;;;;;;;2.00;1.80;;;;;16.80;98291.00;;;;5095118;28;20670;-58
2021/10/04 04:51:05;;;;;;;2.73;1.93;;;;;16.80;98303.00;;;;5095046;28;20192;-59
2021/10/04 04:53:31;;;;;;;1.60;1.50;;;;;16.80;98305.00;;;;5093684;28;20220;-58
2021/10/04 04:55:58;;;;;;;2.20;1.77;;;;;16.80;98311.00;;;;5094872;28;20252;-58
2021/10/04 04:58:24;;;;;;;1.60;1.50;;;;;16.80;98309.00;;;;5094895;28;20666;-58
2021/10/04 05:00:51;;;;;;;2.13;1.90;;;;;16.80;98319.00;;;;5095136;28;20607;-58
2021/10/04 05:03:18;;;;;;;1.77;1.67;;;;;16.70;98315.00;;;;5094694;28;20183;-58
2021/10/04 05:05:45;;;;;;;1.80;1.67;;;;;16.80;98318.00;;;;5094807;28;20187;-58
2021/10/04 05:08:11;;;;;;;1.80;1.60;;;;;16.80;98332.00;;;;5094852;28;20241;-58
2021/10/04 05:10:37;;;;;;;2.00;1.80;;;;;16.80;98330.00;;;;5095028;28;20192;-58
2021/10/04 05:13:04;;;;;;;1.80;1.70;;;;;16.80;98335.00;;;;5094727;28;20190;-58
2021/10/04 05:15:32;;;;;;;1.70;1.60;;;;;16.80;98338.00;;;;5094662;28;20692;-58
2021/10/04 05:17:58;;;;;;;1.43;1.33;;;;;16.80;98337.00;;;;5094946;28;20192;-58
2021/10/04 05:20:25;;;;;;;2.17;1.93;;;;;16.90;98344.00;;;;5094722;28;20199;-59
2021/10/04 05:22:51;;;;;;;2.00;1.80;;;;;16.90;98342.00;;;;5094568;28;20198;-58
2021/10/04 05:25:18;;;;;;;2.43;1.80;;;;;16.90;98345.00;;;;5094494;28;20208;-58
2021/10/04 05:27:44;;;;;;;2.13;1.83;;;;;16.90;98350.00;;;;5094564;28;20192;-57
2021/10/04 05:30:11;;;;;;;2.97;1.60;;;;;16.90;98356.00;;;;5094296;28;20243;-57
2021/10/04 05:32:38;;;;;;;1.50;1.40;;;;;16.90;98361.00;;;;5094267;28;20196;-57
2021/10/04 05:35:06;;;;;;;2.17;1.80;;;;;16.90;98369.00;;;;5094032;28;20223;-57
2021/10/04 05:37:33;;;;;;;1.43;1.33;;;;;16.90;98384.00;;;;5094163;28;20241;-58
2021/10/04 05:39:59;;;;;;;1.97;1.70;;;;;17.00;98380.00;;;;5094624;28;20188;-57
2021/10/04 05:42:27;;;;;;;1.97;1.80;;;;;17.00;98380.00;;;;5094059;28;20216;-58
2021/10/04 05:44:54;;;;;;;1.67;1.57;;;;;17.10;98376.00;;;;5094010;28;20208;-58
2021/10/04 05:47:20;;;;;;;1.43;1.33;;;;;17.10;98371.00;;;;5093951;28;20284;-58
2021/10/04 05:49:47;;;;;;;1.70;1.60;;;;;17.10;98372.00;;;;5094478;28;20188;-57
2021/10/04 05:52:13;;;;;;;1.87;1.70;;;;;17.20;98363.00;;;;5094265;28;20570;-58
2021/10/04 05:54:40;;;;;;;1.60;1.50;;;;;17.20;98358.00;;;;5093791;28;20616;-57
2021/10/04 05:57:07;;;;;;;1.83;1.73;;;;;17.20;98357.00;;;;5093790;28;20196;-58
2021/10/04 05:59:33;;;;;;;1.90;1.50;;;;;17.20;98361.00;;;;5093768;28;20225;-57
2021/10/04 06:02:00;;;;;;;1.63;1.40;;;;;17.20;98358.00;;;;5093990;28;20195;-57
2021/10/04 06:04:27;;;;;;;1.73;1.63;;;;;17.20;98360.00;;;;5093801;28;20548;-58
2021/10/04 06:06:53;;;;;;;1.30;1.20;;;;;17.20;98364.00;;;;5093610;28;20224;-58
2021/10/04 06:09:20;;;;;;;1.40;1.30;;;;;17.20;98366.00;;;;5093613;28;20601;-57
2021/10/04 06:11:46;;;;;;;1.90;1.40;;;;;17.20;98378.00;;;;5093794;28;20252;-58
2021/10/04 06:14:13;;;;;;;1.43;1.30;;;;;17.20;98394.00;;;;5093446;28;20280;-58
2021/10/04 06:16:39;;;;;;;2.13;1.53;;;;;17.20;98384.00;;;;5094003;28;20188;-55
2021/10/04 06:19:06;;;;;;;1.40;1.30;;;;;17.30;98377.00;;;;5093737;28;20187;-57
2021/10/04 06:21:32;;;;;;;2.33;1.40;;;;;17.30;98377.00;;;;5093346;28;20657;-58
2021/10/04 06:23:59;;;;;;;3.60;1.70;;;;;17.30;98386.00;;;;5093369;28;20204;-58
2021/10/04 06:26:25;;;;;;;1.60;1.40;;;;;17.40;98386.00;;;;5093360;28;20188;-56
2021/10/04 06:28:53;;;;;;;2.23;1.50;;;;;17.40;98381.00;;;;5093343;28;20188;-58
2021/10/04 06:31:20;;;;;;;2.03;1.40;;;;;17.40;98385.00;;;;5093024;28;20184;-57
2021/10/04 06:33:46;;;;;;;2.33;1.30;;;;;17.40;98400.00;;;;5093217;28;20219;-58
2021/10/04 06:36:13;;;;;;;2.07;1.63;;;;;17.40;98399.00;;;;5093246;28;20187;-59
2021/10/04 06:38:39;;;;;;;3.50;1.50;;;;;17.50;98403.00;;;;5093264;28;20191;-58
2021/10/04 06:41:07;;;;;;;1.40;1.30;;;;;17.50;98400.00;;;;5093257;28;20550;-58
2021/10/04 06:43:33;;;;;;;2.27;1.40;;;;;17.50;98402.00;;;;5093279;28;20207;-58
2021/10/04 06:46:00;;;;;;;1.53;1.43;;;;;17.50;98398.00;;;;5093183;28;20241;-58
2021/10/04 06:48:26;;;;;;;1.30;1.20;;;;;17.50;98398.00;;;;5093325;28;20233;-58
2021/10/04 06:50:53;;;;;;;1.60;1.40;;;;;17.60;98404.00;;;;5093224;28;20253;-57
2021/10/04 06:53:20;;;;;;;2.40;1.30;;;;;17.60;98401.00;;;;5093032;28;20239;-58
2021/10/04 06:55:46;;;;;;;1.43;1.33;;;;;17.60;98412.00;;;;5093130;28;20187;-58
2021/10/04 06:58:13;;;;;;;1.40;1.30;;;;;17.60;98420.00;;;;5091766;28;20664;-58
2021/10/04 07:00:40;;;;;;;1.50;1.37;;;;;17.60;98419.00;;;;5093109;28;20195;-58
2021/10/04 07:03:06;;;;;;;1.40;1.30;;;;;17.60;98437.00;;;;5093018;28;20205;-57
2021/10/04 07:05:33;;;;;;;1.57;1.30;;;;;17.60;98445.00;;;;5093273;28;20188;-58
2021/10/04 07:08:00;;;;;;;2.20;1.10;;;;;17.60;98448.00;;;;5093063;28;20190;-58
2021/10/04 07:10:27;;;;;;;2.17;1.10;;;;;17.60;98470.00;;;;5093032;28;20236;-57
2021/10/04 07:12:54;;;;;;;1.77;1.40;;;;;17.50;98462.00;;;;5092956;28;20192;-58
2021/10/04 07:15:21;;;;;;;1.30;1.20;;;;;17.50;98470.00;;;;5092811;28;20208;-57
2021/10/04 07:17:47;;;;;;;2.13;1.50;;;;;17.40;98477.00;;;;5092860;28;20211;-57
2021/10/04 07:20:14;;;;;;;1.23;1.13;;;;;17.40;98473.00;;;;5092913;28;20192;-58
2021/10/04 07:22:41;;;;;;;1.23;1.10;;;;;17.30;98471.00;;;;5092758;28;20199;-56
2021/10/04 07:25:08;;;;;;;2.50;1.20;;;;;17.30;98473.00;;;;5092828;28;20207;-58
2021/10/04 07:27:35;;;;;;;1.40;1.30;;;;;17.30;98479.00;;;;5092781;28;20192;-58
2021/10/04 07:30:03;;;;;;;1.30;1.20;;;;;17.30;98487.00;;;;5093085;28;20184;-56
2021/10/04 07:32:30;;;;;;;1.40;1.30;;;;;17.30;98496.00;;;;5092633;28;20691;-58
2021/10/04 07:34:56;;;;;;;1.57;1.30;;;;;17.30;98502.00;;;;5092543;28;20670;-55
2021/10/04 07:37:23;;;;;;;1.50;1.40;;;;;17.30;98503.00;;;;5092705;28;20188;-57
2021/10/04 07:39:50;;;;;;;1.30;1.20;;;;;17.30;98496.00;;;;5092669;28;20654;-57
2021/10/04 07:42:16;;;;;;;1.40;1.30;;;;;17.20;98492.00;;;;5092872;28;20536;-57
2021/10/04 07:44:43;;;;;;;1.83;1.33;;;;;17.30;98487.00;;;;5096083;28;20249;-57
2021/10/04 07:47:09;;;;;;;1.30;1.20;;;;;17.30;98492.00;;;;5096335;28;20192;-56
2021/10/04 07:49:36;;;;;;;1.20;1.10;;;;;17.30;98483.00;;;;5096269;28;20242;-56
2021/10/04 07:52:04;;;;;;;1.40;1.23;;;;;17.30;98488.00;;;;5096237;28;20565;-56
2021/10/04 07:54:31;;;;;;;1.50;1.40;;;;;17.30;98477.00;;;;5096319;28;20208;-56
2021/10/04 07:56:57;;;;;;;2.27;1.37;;;;;17.40;98468.00;;;;5096370;28;20249;-56
2021/10/04 07:59:24;;;;;;;1.97;1.17;;;;;17.30;98471.00;;;;5096047;28;20218;-56
2021/10/04 08:01:50;;;;;;;1.07;1.07;;;;;17.30;98470.00;;;;5096024;28;20188;-55
2021/10/04 08:04:17;;;;;;;1.57;1.10;;;;;17.30;98480.00;;;;5095928;28;20197;-56
2021/10/04 08:06:44;;;;;;;1.60;1.50;;;;;17.30;98479.00;;;;5096194;28;20207;-56
2021/10/04 08:09:11;;;;;;;1.57;1.20;;;;;17.30;98468.00;;;;5095841;28;20249;-55
2021/10/04 08:11:37;;;;;;;1.20;1.10;;;;;17.30;98465.00;;;;5096115;28;20661;-57
2021/10/04 08:14:04;;;;;;;1.13;1.03;;;;;17.30;98471.00;;;;5095663;28;20751;-56
2021/10/04 08:16:30;;;;;;;1.17;1.10;;;;;17.30;98472.00;;;;5095768;28;20188;-57
2021/10/04 08:18:57;;;;;;;1.43;1.33;;;;;17.30;98471.00;;;;5095867;28;20196;-56
2021/10/04 08:21:24;;;;;;;1.13;1.03;;;;;17.30;98460.00;;;;5095608;28;20240;-57
2021/10/04 08:23:51;;;;;;;1.57;1.30;;;;;17.30;98474.00;;;;5095398;28;20751;-57
2021/10/04 08:26:18;;;;;;;1.30;1.20;;;;;17.30;98475.00;;;;5096113;28;20641;-56
2021/10/04 08:28:45;;;;;;;1.47;1.37;;;;;17.20;98479.00;;;;5095453;28;20192;-54
2021/10/04 08:31:12;;;;;;;1.10;1.00;;;;;17.20;98478.00;;;;5095508;28;20188;-57
2021/10/04 08:33:39;;;;;;;1.30;1.20;;;;;17.20;98475.00;;;;5095368;28;20211;-56
2021/10/04 08:36:05;;;;;;;1.30;1.20;;;;;17.20;98466.00;;;;5095241;28;20692;-54
2021/10/04 08:38:32;;;;;;;1.20;1.10;;;;;17.20;98462.00;;;;5095569;28;20184;-54
2021/10/04 08:40:59;;;;;;;2.10;1.10;;;;;17.30;98470.00;;;;5095435;28;20552;-54
2021/10/04 08:43:26;;;;;;;1.30;1.20;;;;;17.30;98472.00;;;;5095064;28;20754;-56
2021/10/04 08:45:57;;;;;;;1.53;1.10;;;;;17.40;98477.00;;;;5095630;28;20238;-53
2021/10/04 08:48:25;;;;;;;1.07;0.97;;;;;17.40;98487.00;;;;5094192;28;20666;-55
2021/10/04 08:50:55;;;;;;;1.33;1.23;;;;;17.50;98482.00;;;;5095010;28;20681;-55
2021/10/04 08:53:23;;;;;;;1.40;1.30;;;;;17.60;98491.00;;;;5094109;28;20207;-56
2021/10/04 08:55:50;;;;;;;1.30;1.00;;;;;17.70;98490.00;;;;5095170;28;20669;-56
2021/10/04 08:58:16;;;;;;;1.53;1.20;;;;;17.80;98490.00;;;;5095083;28;20243;-56
2021/10/04 09:00:43;;;;;;;1.50;1.03;;;;;17.90;98498.00;;;;5094918;28;20187;-55
2021/10/04 09:03:11;;;;;;;1.40;1.20;;;;;17.90;98504.00;;;;5094820;28;20184;-55
2021/10/04 09:05:43;;;;;;;1.07;1.00;;;;;18.00;98512.00;;;;5094723;28;20587;-54
2021/10/04 09:08:12;;;;;;;1.47;1.17;;;;;18.10;98514.00;;;;5094964;28;20194;-57
2021/10/04 09:10:41;;;;;;;1.27;1.10;;;;;18.10;98513.00;;;;5094638;28;20558;-58
2021/10/04 09:13:14;;;;;;;1.40;1.03;;;;;18.10;98514.00;;;;5094847;28;20228;-56
2021/10/04 09:15:46;;;;;;;1.90;1.10;;;;;18.20;98518.00;;;;5095006;28;20584;-58
2021/10/04 09:18:15;;;;;;;1.77;1.10;;;;;18.20;98510.00;;;;5094895;28;20176;-58
2021/10/04 09:21:11;;;;;;;1.13;1.00;;;;;18.30;98509.00;;;;5094402;28;20244;-56
2021/10/04 09:23:56;;;;;;;1.20;1.10;;;;;18.30;98509.00;;;;5093157;28;20216;-58
2021/10/04 09:26:25;;;;;;;1.47;1.10;;;;;18.30;98524.00;;;;5094905;28;20180;-57
2021/10/04 09:29:07;;;;;;;1.40;1.07;;;;;18.30;98517.00;;;;5094267;28;20187;-57
2021/10/04 09:31:40;;;;;;;1.17;1.07;;;;;18.30;98521.00;;;;5094552;28;20176;-57
2021/10/04 09:34:17;;;;;;;2.40;1.00;;;;;18.30;98516.00;;;;5094344;28;20666;-56
2021/10/04 09:36:45;;;;;;;1.27;1.17;;;;;18.30;98520.00;;;;5094409;28;20172;-58
2021/10/04 09:39:17;;;;;;;1.40;1.17;;;;;18.40;98520.00;;;;5094154;28;20184;-58
2021/10/04 09:42:04;;;;;;;1.33;1.00;;;;;18.40;98512.00;;;;5094315;28;20662;-57
2021/10/04 09:44:52;;;;;;;0.93;0.93;;;;;18.40;98513.00;;;;5093952;28;20755;-56
2021/10/04 09:47:29;;;;;;;1.20;1.10;;;;;18.40;98513.00;;;;5094483;28;20176;-58
2021/10/04 09:50:07;;;;;;;1.97;1.00;;;;;18.40;98516.00;;;;5093864;28;20786;-58
2021/10/04 09:52:36;;;;;;;1.40;1.10;;;;;18.40;98510.00;;;;5093832;28;20201;-56
2021/10/04 09:55:26;;;;;;;0.90;0.90;;;;;18.40;98504.00;;;;5093563;28;20212;-54
2021/10/04 09:58:05;;;;;;;1.30;1.20;;;;;18.40;98507.00;;;;5093979;28;20168;-57
2021/10/04 10:00:50;;;;;;;1.10;1.07;;;;;18.40;98505.00;;;;5093999;28;20234;-58
2021/10/04 10:03:19;;;;;;;1.20;0.90;;;;;18.40;98498.00;;;;5093897;28;20555;-58
2021/10/04 10:05:50;;;;;;;1.83;0.90;;;;;18.30;98492.00;;;;5093256;28;20589;-57
2021/10/04 10:08:18;;;;;;;1.87;0.90;;;;;18.30;98481.00;;;;5093722;28;20183;-57
2021/10/04 10:10:45;;;;;;;1.30;0.90;;;;;18.30;98476.00;;;;5093509;28;20298;-56
2021/10/04 10:13:14;;;;;;;1.20;1.10;;;;;18.30;98482.00;;;;5093350;28;20184;-58
2021/10/04 10:15:45;;;;;;;1.33;1.07;;;;;18.30;98481.00;;;;5093573;28;20234;-55
2021/10/04 10:18:40;;;;;;;1.20;1.10;;;;;18.30;98481.00;;;;5093968;28;20180;-58
2021/10/04 10:21:17;;;;;;;1.57;1.10;;;;;18.30;98490.00;;;;5093322;28;20214;-58
2021/10/04 10:23:46;;;;;;;1.13;0.90;;;;;18.30;98493.00;;;;5093159;28;20222;-57
2021/10/04 10:26:33;;;;;;;0.90;0.90;;;;;18.30;98503.00;;;;5093419;28;20180;-57
2021/10/04 10:29:12;;;;;;;1.90;1.13;;;;;18.30;98506.00;;;;5093249;28;20176;-57
2021/10/04 10:31:51;;;;;;;2.93;1.10;;;;;18.20;98495.00;;;;5075211;28;20191;-56
2021/10/04 10:34:24;;;;;;;3.53;1.00;;;;;18.20;98490.00;;;;5093369;28;20204;-58
2021/10/04 10:37:21;;;;;;;3.70;1.30;;;;;18.20;98501.00;;;;5093123;28;20199;-57
2021/10/04 10:39:52;;;;;;;4.07;1.67;;;;;18.20;98500.00;;;;5086432;28;20202;-57
2021/10/04 10:42:22;;;;;;;2.90;1.37;;;;;18.10;98499.00;;;;5093249;28;20184;-56
2021/10/04 10:45:20;;;;;;;2.93;1.13;;;;;18.10;98502.00;;;;5091875;28;20200;-57
2021/10/04 10:47:45;;;;;;;1.67;1.07;;;;;18.10;98507.00;;;;5093494;28;20633;-58
2021/10/04 10:50:12;;;;;;;1.90;1.50;;;;;18.10;98495.00;;;;5092999;28;20241;-59
2021/10/04 10:52:42;;;;;;;5.97;1.40;;;;;18.20;98481.00;;;;5092829;28;20650;-57
2021/10/04 10:55:18;;;;;;;2.20;1.20;;;;;18.20;98475.00;;;;5092825;28;20208;-57
2021/10/04 10:57:59;;;;;;;2.07;1.23;;;;;18.20;98475.00;;;;5092806;28;20184;-57
2021/10/04 11:00:50;;;;;;;2.00;1.00;;;;;18.10;98460.00;;;;5093140;28;20180;-56
2021/10/04 11:03:22;;;;;;;2.20;1.10;;;;;18.10;98453.00;;;;5093044;28;20619;-56
2021/10/04 11:05:51;;;;;;;3.83;1.33;;;;;18.10;98465.00;;;;5093079;28;20225;-57
2021/10/04 11:08:20;;;;;;;2.90;1.20;;;;;18.10;98480.00;;;;5092763;28;20184;-59
2021/10/04 11:10:49;;;;;;;2.23;1.50;;;;;18.20;98486.00;;;;5092956;28;20594;-55
2021/10/04 11:13:29;;;;;;;3.00;1.40;;;;;18.20;98486.00;;;;5092559;28;20195;-58
2021/10/04 11:15:58;;;;;;;1.93;1.20;;;;;18.20;98481.00;;;;5092647;28;20253;-57
2021/10/04 11:18:36;;;;;;;2.13;1.40;;;;;18.20;98501.00;;;;5095988;28;20724;-56
2021/10/04 11:21:18;;;;;;;3.90;1.30;;;;;18.20;98501.00;;;;5096178;28;20184;-57
2021/10/04 11:23:55;;;;;;;1.47;1.17;;;;;18.20;98491.00;;;;5096484;28;20227;-57
2021/10/04 11:26:25;;;;;;;2.97;1.30;;;;;18.30;98489.00;;;;5096658;28;20176;-54
2021/10/04 11:28:58;;;;;;;2.40;1.30;;;;;18.30;98484.00;;;;5096484;28;20200;-56
2021/10/04 11:31:30;;;;;;;1.27;1.17;;;;;18.30;98478.00;;;;5096744;28;20699;-57
2021/10/04 11:34:00;;;;;;;1.67;1.17;;;;;18.30;98483.00;;;;5095080;28;20208;-56
2021/10/04 11:36:34;;;;;;;2.50;1.10;;;;;18.30;98485.00;;;;5097424;28;20580;-57
2021/10/04 11:39:05;;;;;;;2.07;1.17;;;;;18.30;98489.00;;;;5096384;28;20232;-58
2021/10/04 11:41:32;;;;;;;2.50;1.20;;;;;18.30;98485.00;;;;5096625;28;20581;-57
2021/10/04 11:44:03;;;;;;;1.73;0.80;;;;;18.30;98484.00;;;;5096065;28;20269;-57
2021/10/04 11:46:32;;;;;;;1.97;0.90;;;;;18.40;98490.00;;;;5096226;28;20191;-60
2021/10/04 11:49:02;;;;;;;1.77;1.30;;;;;18.70;98496.00;;;;5096407;28;20191;-61
2021/10/04 11:51:30;;;;;;;1.73;1.07;;;;;18.80;98492.00;;;;5096109;28;20188;-60
2021/10/04 11:53:57;;;;;;;3.23;1.20;;;;;18.90;98488.00;;;;5095980;28;20208;-59
2021/10/04 11:56:23;;;;;;;2.67;1.07;;;;;18.90;98489.00;;;;5096019;28;20622;-57
2021/10/04 11:58:54;;;;;;;1.40;1.00;;;;;18.90;98487.00;;;;5095900;28;20188;-58
2021/10/04 12:01:49;;;;;;;3.63;1.10;;;;;19.00;98487.00;;;;5096041;28;20173;-59
2021/10/04 12:04:16;;;;;;;1.57;1.00;;;;;19.00;98483.00;;;;5078909;28;20232;-59
2021/10/04 12:06:44;;;;;;;3.10;1.20;;;;;18.90;98478.00;;;;5095784;28;20186;-59
2021/10/04 12:09:16;;;;;;;1.23;1.00;;;;;18.70;98481.00;;;;5095909;28;20587;-59
2021/10/04 12:11:51;;;;;;;1.27;1.07;;;;;18.50;98474.00;;;;5096309;28;20177;-59
2021/10/04 12:14:19;;;;;;;2.47;1.20;;;;;18.40;98472.00;;;;5095658;28;20569;-58
2021/10/04 12:16:49;;;;;;;2.23;1.13;;;;;18.30;98477.00;;;;5096178;28;20243;-57
2021/10/04 12:19:16;;;;;;;1.50;0.90;;;;;18.30;98471.00;;;;5095913;28;20693;-57
2021/10/04 12:21:46;;;;;;;1.73;0.90;;;;;18.30;98472.00;;;;5095427;28;20184;-59
2021/10/04 12:24:30;;;;;;;1.60;1.07;;;;;18.30;98457.00;;;;5095723;28;20238;-59
2021/10/04 12:27:18;;;;;;;0.83;0.80;;;;;18.20;98456.00;;;;5095770;28;20172;-59